Time;durP1;ratioP1;P1;durP2;ratioP2;P2;SDS_P1;SDS_P2;PMS_P1;PMS_P2;Temp;Humidity;BMP_temperature;BMP_pressure;BME280_temperature;BME280_humidity;BME280_pressure;Samples;Min_cycle;Max_cycle;Signal;HPM_P1;HPM_P2
2022/11/27 00:02:30;;;;;;;78.80;29.03;;;;;;;4.40;100.00;101939.40;3636926;79;33196;-87
2022/11/27 00:07:31;;;;;;;90.03;32.53;;;;;;;4.39;100.00;101945.42;3639682;79;99032;-87
2022/11/27 00:12:32;;;;;;;81.40;30.70;;;;;;;4.40;100.00;101939.40;3640734;79;27451;-87
2022/11/27 00:17:33;;;;;;;77.27;28.90;;;;;;;4.44;100.00;101940.42;3638863;79;98809;-87
2022/11/27 00:22:33;;;;;;;84.47;28.80;;;;;;;4.46;100.00;101931.38;3649474;79;26544;-87
2022/11/27 00:27:34;;;;;;;83.10;30.33;;;;;;;4.47;100.00;101933.82;3641822;79;98644;-87
2022/11/27 00:32:35;;;;;;;92.37;30.90;;;;;;;4.47;100.00;101931.67;3640325;79;26536;-87
2022/11/27 00:37:36;;;;;;;97.70;34.80;;;;;;;4.47;100.00;101926.21;3641430;79;98715;-87
2022/11/27 00:42:37;;;;;;;82.07;31.40;;;;;;;4.47;100.00;101933.82;3646803;79;26332;-87
2022/11/27 00:47:38;;;;;;;92.17;32.53;;;;;;;4.47;100.00;101928.36;3634930;79;98829;-87
2022/11/27 00:52:38;;;;;;;91.20;30.47;;;;;;;4.47;100.00;101928.94;3633230;79;33781;-87
2022/11/27 00:57:39;;;;;;;75.60;28.53;;;;;;;4.51;100.00;101930.75;3638981;79;98749;-86
2022/11/27 01:02:40;;;;;;;79.53;28.77;;;;;;;4.51;100.00;101937.58;3644740;79;34456;-87
2022/11/27 01:07:41;;;;;;;86.27;28.97;;;;;;;4.53;100.00;101933.19;3641330;79;98515;-87
2022/11/27 01:12:42;;;;;;;80.10;28.83;;;;;;;4.53;100.00;101929.89;3650502;79;33202;-87
2022/11/27 01:17:42;;;;;;;64.13;27.87;;;;;;;4.53;100.00;101936.70;3643363;79;98792;-86
2022/11/27 01:22:44;;;;;;;82.93;29.50;;;;;;;4.56;100.00;101927.12;3646178;79;33206;-86
2022/11/27 01:27:44;;;;;;;66.13;25.67;;;;;;;4.58;100.00;101933.09;3633509;79;98935;-85
2022/11/27 01:32:45;;;;;;;88.27;31.37;;;;;;;4.59;100.00;101928.69;3639208;79;32665;-87
2022/11/27 01:37:46;;;;;;;79.20;29.60;;;;;;;4.63;100.00;101942.55;3631433;79;98667;-86
2022/11/27 01:42:47;;;;;;;101.67;30.97;;;;;;;4.65;100.00;101938.39;3656634;79;31599;-87
2022/11/27 01:47:58;;;;;;;77.33;30.10;;;;;;;4.68;100.00;101930.16;3649564;79;98949;-86
2022/11/27 01:53:06;;;;;;;103.17;33.60;;;;;;;4.67;100.00;101932.64;3647796;79;31369;-85
2022/11/27 01:58:12;;;;;;;79.65;29.05;;;;;;;4.69;100.00;101937.26;3651992;79;31978;-86
2022/11/27 02:03:14;;;;;;;92.05;29.25;;;;;;;4.66;100.00;101934.58;3636878;79;98836;-86
2022/11/27 02:08:17;;;;;;;91.05;32.40;;;;;;;4.67;100.00;101929.37;3638934;79;32848;-86
2022/11/27 02:13:48;;;;;;;90.87;32.97;;;;;;;4.67;100.00;101925.82;3631288;79;100025;-86
2022/11/27 02:19:00;;;;;;;88.85;29.98;;;;;;;4.65;100.00;101927.48;3651439;79;31931;-87
2022/11/27 02:24:34;;;;;;;98.53;30.60;;;;;;;4.64;100.00;101934.63;3628783;79;99023;-87
2022/11/27 02:29:35;;;;;;;64.20;26.57;;;;;;;4.63;100.00;101937.89;3647461;79;32384;-86
2022/11/27 02:35:01;;;;;;;86.40;29.83;;;;;;;4.64;100.00;101934.63;3634857;79;99060;-88
2022/11/27 02:40:26;;;;;;;73.90;29.47;;;;;;;4.66;100.00;101929.13;3649479;79;34798;-87
2022/11/27 02:45:35;;;;;;;78.90;28.53;;;;;;;4.66;100.00;101937.30;3639639;79;98832;-88
2022/11/27 02:50:38;;;;;;;88.50;30.80;;;;;;;4.67;100.00;101925.82;3637852;79;32430;-86
2022/11/27 02:55:41;;;;;;;65.55;27.32;;;;;;;4.66;100.00;101922.84;3635745;79;99002;-86
2022/11/27 03:00:43;;;;;;;75.35;29.00;;;;;;;4.66;100.00;101911.40;3639726;79;33188;-86
2022/11/27 03:05:48;;;;;;;100.85;33.05;;;;;;;4.71;100.00;101925.48;3644787;79;98976;-86
2022/11/27 03:10:56;;;;;;;78.85;31.50;;;;;;;4.74;100.00;101927.62;3660392;79;33179;-87
2022/11/27 03:16:13;;;;;;;86.72;31.25;;;;;;;4.72;100.00;101936.09;3635720;79;98774;-86
2022/11/27 03:21:19;;;;;;;68.57;26.12;;;;;;;4.74;100.00;101922.16;3651143;79;26147;-86
2022/11/27 03:26:20;;;;;;;73.15;28.60;;;;;;;4.72;100.00;101914.82;3632037;79;99068;-87
2022/11/27 03:31:26;;;;;;;73.87;27.33;;;;;;;4.74;100.00;101917.50;3664188;79;31550;-87
2022/11/27 03:36:24;;;;;;;74.72;29.40;;;;;;;4.76;100.00;101915.27;3632657;79;98886;-87
2022/11/27 03:42:19;;;;;;;79.43;29.60;;;;;;;4.76;100.00;101903.56;3654500;79;32833;-87
2022/11/27 03:48:05;;;;;;;71.35;28.85;;;;;;;4.78;100.00;101898.61;3590356;79;98860;-87
2022/11/27 03:53:39;;;;;;;72.03;28.10;;;;;;;4.74;100.00;101884.77;3639567;79;31303;-86
2022/11/27 03:58:54;;;;;;;69.57;27.77;;;;;;;4.77;100.00;101888.27;3649885;79;30995;-86
2022/11/27 04:03:54;;;;;;;69.80;28.20;;;;;;;4.79;100.00;101894.77;3641442;79;99071;-86
2022/11/27 04:08:55;;;;;;;67.57;27.90;;;;;;;4.82;100.00;101890.91;3628299;79;31751;-86
2022/11/27 04:13:56;;;;;;;64.37;27.70;;;;;;;4.81;100.00;101903.47;3633444;79;99038;-86
2022/11/27 04:18:57;;;;;;;64.20;27.03;;;;;;;4.83;100.00;101899.88;3644826;79;32176;-87
2022/11/27 04:23:58;;;;;;;83.70;28.43;;;;;;;4.86;100.00;101896.55;3642574;79;99034;-86
2022/11/27 04:28:58;;;;;;;61.83;27.97;;;;;;;4.83;100.00;101882.14;3658977;79;33045;-87
2022/11/27 04:33:59;;;;;;;76.80;31.50;;;;;;;4.77;100.00;101863.73;3636288;79;99119;-87
2022/11/27 04:39:00;;;;;;;73.07;28.53;;;;;;;4.78;100.00;101861.24;3643738;79;32242;-87
2022/11/27 04:44:01;;;;;;;75.43;29.63;;;;;;;4.80;100.00;101860.95;3635508;78;98845;-86
2022/11/27 04:49:02;;;;;;;83.93;33.90;;;;;;;4.78;100.00;101857.70;3651418;79;34959;-86
2022/11/27 04:54:03;;;;;;;66.23;29.40;;;;;;;4.75;100.00;101867.87;3635341;79;98995;-86
2022/11/27 04:59:04;;;;;;;79.00;35.07;;;;;;;4.77;100.00;101877.91;3641815;79;34880;-86
2022/11/27 05:04:05;;;;;;;70.60;28.93;;;;;;;4.81;100.00;101876.98;3643042;79;98998;-86
2022/11/27 05:09:06;;;;;;;77.85;30.68;;;;;;;4.83;100.00;101876.14;3647248;79;34799;-86
2022/11/27 05:14:21;;;;;;;73.07;27.73;;;;;;;4.88;100.00;101877.95;3638489;79;99081;-86
2022/11/27 05:19:24;;;;;;;64.90;27.53;;;;;;;4.92;100.00;101878.97;3645566;79;27607;-86
2022/11/27 05:24:27;;;;;;;74.25;28.85;;;;;;;4.97;100.00;101881.02;3643462;79;99014;-86
2022/11/27 05:29:28;;;;;;;70.87;27.17;;;;;;;4.98;100.00;101886.75;3646394;79;26544;-85
2022/11/27 05:34:29;;;;;;;77.13;30.63;;;;;;;4.99;100.00;101895.19;3637523;79;99026;-86
2022/11/27 05:39:30;;;;;;;66.73;29.00;;;;;;;4.97;100.00;101886.48;3640717;79;35437;-85
2022/11/27 05:44:31;;;;;;;93.23;38.37;;;;;;;4.99;100.00;101887.55;3633284;79;99039;-85
2022/11/27 05:49:31;;;;;;;88.13;36.67;;;;;;;5.03;100.00;101879.01;3635716;79;35364;-85
2022/11/27 05:54:32;;;;;;;79.80;31.47;;;;;;;5.05;100.00;101889.05;3639912;79;99021;-86
2022/11/27 05:59:33;;;;;;;80.57;30.57;;;;;;;5.07;100.00;101877.30;3638356;79;34778;-85
2022/11/27 06:04:34;;;;;;;79.67;30.55;;;;;;;5.07;100.00;101877.30;3636155;79;98837;-86
2022/11/27 06:09:37;;;;;;;78.73;31.20;;;;;;;5.09;100.00;101884.06;3649198;79;26203;-86
2022/11/27 06:14:38;;;;;;;81.97;31.02;;;;;;;5.09;100.00;101887.34;3647994;79;98933;-85
2022/11/27 06:19:39;;;;;;;79.40;31.50;;;;;;;5.07;100.00;101895.83;3641025;79;26177;-86
2022/11/27 06:24:39;;;;;;;91.30;34.50;;;;;;;5.04;100.00;101893.72;3647309;79;98753;-86
2022/11/27 06:29:40;;;;;;;77.20;33.20;;;;;;;5.03;100.00;101898.11;3649815;79;32486;-85
2022/11/27 06:34:41;;;;;;;63.57;29.40;;;;;;;5.01;100.00;101898.41;3628527;79;98955;-85
2022/11/27 06:39:42;;;;;;;78.10;30.12;;;;;;;5.01;100.00;101898.95;3642341;79;32486;-86
2022/11/27 06:44:43;;;;;;;73.13;30.83;;;;;;;5.02;100.00;101908.20;3642330;79;98891;-86
2022/11/27 06:49:46;;;;;;;72.47;29.67;;;;;;;5.02;100.00;101897.86;3641722;79;32514;-86
2022/11/27 06:54:47;;;;;;;83.43;33.33;;;;;;;5.02;100.00;101906.05;3628228;79;98871;-86
2022/11/27 06:59:48;;;;;;;80.60;30.40;;;;;;;5.06;100.00;101906.49;3636919;79;32521;-86
2022/11/27 07:04:49;;;;;;;80.90;32.63;;;;;;;5.09;100.00;101908.63;3631253;79;98720;-86
2022/11/27 07:09:49;;;;;;;98.23;33.53;;;;;;;5.08;100.00;101904.25;3637004;79;32488;-86
2022/11/27 07:14:50;;;;;;;84.58;33.45;;;;;;;5.09;100.00;101897.71;3643291;79;98917;-87
2022/11/27 07:19:51;;;;;;;100.60;34.17;;;;;;;5.12;100.00;101897.08;3648265;79;27480;-87
2022/11/27 07:24:54;;;;;;;84.10;33.50;;;;;;;5.14;100.00;101898.15;3632630;79;98953;-87
2022/11/27 07:29:54;;;;;;;94.50;33.58;;;;;;;5.13;100.00;101892.45;3642710;79;30914;-86
2022/11/27 07:34:55;;;;;;;81.65;31.87;;;;;;;5.16;100.00;101895.37;3636351;79;98848;-86
2022/11/27 07:39:56;;;;;;;88.60;32.13;;;;;;;5.22;100.00;101875.58;3533457;82;26346;-86
2022/11/27 07:44:57;;;;;;;84.27;32.80;;;;;;;5.25;100.00;101879.87;3639019;79;98831;-86
2022/11/27 07:49:59;;;;;;;85.43;32.07;;;;;;;5.30;100.00;101889.31;3648200;79;25871;-87
2022/11/27 07:55:00;;;;;;;73.73;31.17;;;;;;;5.34;100.00;101896.36;3627806;79;98976;-86
2022/11/27 08:00:00;;;;;;;82.93;35.17;;;;;;;5.40;100.00;101882.84;3635866;79;25867;-86
2022/11/27 08:05:01;;;;;;;81.67;31.73;;;;;;;5.44;100.00;101892.84;3644286;79;99153;-86
2022/11/27 08:10:02;;;;;;;76.70;28.53;;;;;;;5.50;100.00;101888.88;3645509;79;26439;-86
2022/11/27 08:15:04;;;;;;;70.78;28.30;;;;;;;5.50;100.00;101892.97;3637083;79;99036;-86
2022/11/27 08:20:06;;;;;;;58.13;24.73;;;;;;;5.52;100.00;101896.77;3641076;79;26577;-87
2022/11/27 08:25:08;;;;;;;64.87;25.47;;;;;;;5.57;100.00;101892.55;3636950;79;98844;-86
2022/11/27 08:30:10;;;;;;;67.50;27.67;;;;;;;5.62;100.00;101900.05;3638789;79;26303;-87
2022/11/27 08:35:11;;;;;;;74.57;27.80;;;;;;;5.65;100.00;101902.73;3632953;79;98844;-87
2022/11/27 08:40:12;;;;;;;85.33;29.83;;;;;;;5.70;100.00;101900.70;3647871;79;33243;-86
2022/11/27 08:45:13;;;;;;;77.87;33.57;;;;;;;5.76;100.00;101900.02;3635175;78;98725;-87
2022/11/27 08:50:14;;;;;;;81.87;30.47;;;;;;;5.83;100.00;101901.23;3642602;79;33147;-88
2022/11/27 08:55:14;;;;;;;74.67;29.53;;;;;;;5.92;100.00;101896.66;3644561;79;98974;-88
2022/11/27 09:00:16;;;;;;;61.23;25.10;;;;;;;5.98;100.00;101894.59;3633908;79;33210;-88
2022/11/27 09:05:17;;;;;;;76.03;26.77;;;;;;;6.01;100.00;101892.61;3633201;79;98892;-88
2022/11/27 09:10:18;;;;;;;57.60;24.13;;;;;;;6.01;100.00;101896.13;3645525;79;33332;-88
2022/11/27 09:15:19;;;;;;;51.20;22.27;;;;;;;6.05;100.00;101895.77;3641148;79;98901;-89
2022/11/27 09:20:20;;;;;;;52.93;22.80;;;;;;;6.06;100.00;101894.64;3648005;79;33264;-88
2022/11/27 09:25:22;;;;;;;44.47;19.67;;;;;;;6.11;100.00;101890.42;3641756;79;98745;-87
2022/11/27 09:30:22;;;;;;;49.33;21.27;;;;;;;6.17;100.00;101887.80;3640145;79;33452;-87
2022/11/27 09:35:23;;;;;;;50.03;21.50;;;;;;;6.26;100.00;101884.58;3628480;79;99030;-89
2022/11/27 09:40:24;;;;;;;43.00;19.10;;;;;;;6.31;100.00;101887.73;3653212;79;31632;-89
2022/11/27 09:45:26;;;;;;;37.87;17.27;;;;;;;6.35;100.00;101886.81;3635675;79;98919;-88
2022/11/27 09:50:38;;;;;;;45.05;19.92;;;;;;;6.34;100.00;101883.02;3639578;79;33255;-89
2022/11/27 09:55:44;;;;;;;38.08;18.77;;;;;;;6.32;100.00;101885.27;3642145;79;98777;-88
2022/11/27 10:00:46;;;;;;;45.23;18.92;;;;;;;6.38;100.00;101877.96;3641243;79;25965;-88
2022/11/27 10:06:01;;;;;;;50.52;20.82;;;;;;;6.38;100.00;101865.66;3628902;79;99244;-88
2022/11/27 10:11:30;;;;;;;39.73;17.90;;;;;;;6.40;100.00;101860.70;3641546;79;30420;-88
2022/11/27 10:17:03;;;;;;;36.53;15.97;;;;;;;6.48;100.00;101850.34;3640851;79;98809;-88
2022/11/27 10:22:24;;;;;;;41.83;17.92;;;;;;;6.58;100.00;101836.40;3645969;79;32369;-88
2022/11/27 10:28:06;;;;;;;42.15;19.55;;;;;;;6.64;100.00;101833.77;3636668;79;98928;-88
2022/11/27 10:33:12;;;;;;;49.23;22.58;;;;;;;6.65;100.00;101843.58;3643280;79;32851;-88
2022/11/27 10:38:25;;;;;;;45.00;21.95;;;;;;;6.70;100.00;101839.91;3643030;79;25839;-89
2022/11/27 10:43:25;;;;;;;51.18;24.90;;;;;;;6.65;100.00;101823.06;3642963;79;100658;-88
2022/11/27 10:48:28;;;;;;;52.43;25.20;;;;;;;6.68;100.00;101827.91;3634760;79;31643;-88
2022/11/27 10:53:34;;;;;;;48.75;24.10;;;;;;;6.72;100.00;101815.77;3628082;79;98826;-89
2022/11/27 10:59:12;;;;;;;47.70;24.70;;;;;;;6.72;100.00;101823.97;3648718;79;29178;-88
2022/11/27 11:04:18;;;;;;;47.83;23.98;;;;;;;6.69;100.00;101824.59;3636995;79;98939;-89
2022/11/27 11:09:29;;;;;;;46.20;21.05;;;;;;;6.69;100.00;101819.13;3642537;79;25835;-88
2022/11/27 11:14:29;;;;;;;46.23;23.92;;;;;;;6.70;100.00;101818.81;3638759;79;98655;-89
2022/11/27 11:19:36;;;;;;;42.50;22.40;;;;;;;6.72;100.00;101815.77;3643325;79;31927;-88
2022/11/27 11:24:41;;;;;;;40.90;20.55;;;;;;;6.73;100.00;101809.16;3642133;79;98820;-88
2022/11/27 11:29:53;;;;;;;41.58;20.43;;;;;;;6.73;100.00;101814.09;3655626;78;33256;-89
2022/11/27 11:35:31;;;;;;;37.77;18.57;;;;;;;6.74;100.00;101805.30;3642978;79;98906;-88
2022/11/27 11:40:35;;;;;;;33.38;16.37;;;;;;;6.72;100.00;101802.87;3642295;79;33053;-87
2022/11/27 11:45:44;;;;;;;28.67;14.90;;;;;;;6.78;100.00;101809.02;3646724;79;98752;-88
2022/11/27 11:50:56;;;;;;;29.70;16.37;;;;;;;6.82;100.00;101808.05;3642342;79;34200;-88
2022/11/27 11:56:22;;;;;;;30.32;14.25;;;;;;;6.90;100.00;101802.36;3647475;79;98811;-88
2022/11/27 12:02:11;;;;;;;35.88;16.70;;;;;;;6.97;100.00;101804.05;3643761;79;32219;-88
2022/11/27 12:07:49;;;;;;;35.97;19.93;;;;;;;6.97;100.00;101805.42;3570175;81;98910;-87
2022/11/27 12:13:07;;;;;;;37.00;19.55;;;;;;;7.05;100.00;101791.78;3622120;80;32229;-87
2022/11/27 12:18:44;;;;;;;31.87;18.48;;;;;;;7.12;100.00;101786.63;3627360;80;31427;-88
2022/11/27 12:24:08;;;;;;;33.53;16.83;;;;;;;7.17;100.00;101780.99;3625068;80;99171;-88
2022/11/27 12:29:53;;;;;;;32.15;15.98;;;;;;;7.26;100.00;101774.94;3644435;79;33854;-87
2022/11/27 12:35:00;;;;;;;26.42;15.05;;;;;;;7.32;100.00;101775.59;3630629;79;98816;-87
2022/11/27 12:40:23;;;;;;;31.80;16.60;;;;;;;7.32;100.00;101782.44;3638963;79;26375;-88
2022/11/27 12:45:35;;;;;;;31.83;16.37;;;;;;;7.35;100.00;101784.52;3639535;79;98743;-88
2022/11/27 12:50:43;;;;;;;28.12;16.40;;;;;;;7.39;100.00;101780.02;3632797;79;34460;-87
2022/11/27 12:55:52;;;;;;;29.70;15.80;;;;;;;7.38;100.00;101772.38;3634231;79;99312;-88
2022/11/27 13:01:10;;;;;;;24.85;14.05;;;;;;;7.38;100.00;101767.45;3637077;79;31386;-87
2022/11/27 13:06:18;;;;;;;24.80;13.13;;;;;;;7.37;100.00;101765.85;3606194;79;98885;-88
2022/11/27 13:11:24;;;;;;;24.17;12.73;;;;;;;7.28;100.00;101760.93;3634209;79;31745;-88
2022/11/27 13:16:30;;;;;;;26.07;13.95;;;;;;;7.23;100.00;101756.43;3634319;79;98809;-88
2022/11/27 13:21:33;;;;;;;27.02;14.60;;;;;;;7.20;100.00;101743.95;3638398;79;25845;-88
2022/11/27 13:26:43;;;;;;;27.93;15.25;;;;;;;7.17;100.00;101748.14;3617549;79;98911;-87
2022/11/27 13:31:47;;;;;;;32.28;15.95;;;;;;;7.10;100.00;101740.16;3616180;80;33928;-88
2022/11/27 13:37:04;;;;;;;43.33;21.42;;;;;;;7.05;100.00;101737.03;3573174;80;98928;-87
2022/11/27 13:42:08;;;;;;;;;;;;;;;7.01;100.00;101747.00;3568705;81;26931;-88
2022/11/27 13:47:16;;;;;;;39.50;25.67;;;;;;;6.99;100.00;101734.77;3561499;80;84598;-87
2022/11/27 13:52:20;;;;;;;32.58;16.12;;;;;;;6.92;100.00;101737.18;3564561;81;33312;-87
2022/11/27 13:57:22;;;;;;;25.88;14.43;;;;;;;6.94;100.00;101733.00;3561014;82;98897;-88
2022/11/27 14:02:24;;;;;;;33.60;17.62;;;;;;;6.94;100.00;101733.00;3555389;82;31641;-88
2022/11/27 14:07:40;;;;;;;28.23;14.23;;;;;;;6.88;100.00;101726.05;3558155;81;98644;-87
2022/11/27 14:12:45;;;;;;;28.57;15.07;;;;;;;6.80;100.00;101724.67;3561564;81;28467;-88
2022/11/27 14:17:50;;;;;;;30.00;14.43;;;;;;;6.72;100.00;101717.27;3579004;81;98788;-87
2022/11/27 14:22:57;;;;;;;32.28;15.75;;;;;;;6.67;100.00;101716.88;3575317;81;32532;-87
2022/11/27 14:28:12;;;;;;;32.05;16.12;;;;;;;6.69;100.00;101718.71;3625689;80;98705;-87
2022/11/27 14:33:26;;;;;;;38.88;19.37;;;;;;;6.59;100.00;101708.08;3624487;80;99129;-87
2022/11/27 14:38:29;;;;;;;31.97;15.78;;;;;;;6.52;100.00;101694.63;3564935;80;33380;-87
2022/11/27 14:43:30;;;;;;;36.58;16.55;;;;;;;6.47;100.00;101693.40;3559504;80;98950;-88
2022/11/27 14:48:48;;;;;;;36.23;18.10;;;;;;;6.38;100.00;101681.66;3567866;81;31698;-87
2022/11/27 14:53:53;;;;;;;35.65;17.62;;;;;;;6.30;100.00;101681.88;3556034;80;98902;-87
2022/11/27 14:58:55;;;;;;;39.10;19.13;;;;;;;6.22;100.00;101673.08;3566732;80;29511;-87
2022/11/27 15:04:00;;;;;;;40.23;19.95;;;;;;;6.13;100.00;101666.80;3554103;81;98737;-87
2022/11/27 15:09:01;;;;;;;49.23;25.17;;;;;;;6.07;100.00;101668.08;3563810;81;33722;-87
2022/11/27 15:14:02;;;;;;;42.30;21.60;;;;;;;5.96;100.00;101684.52;3553701;81;98984;-87
2022/11/27 15:19:04;;;;;;;44.10;24.47;;;;;;;5.90;100.00;101683.02;3554216;80;31657;-86
2022/11/27 15:24:26;;;;;;;53.28;28.47;;;;;;;5.85;100.00;101672.80;3557285;81;99079;-87
2022/11/27 15:29:35;;;;;;;49.50;26.85;;;;;;;5.75;100.00;101679.32;3572788;81;32829;-88
2022/11/27 15:34:36;;;;;;;48.60;24.97;;;;;;;5.67;100.00;101688.27;3546448;80;99145;-87
2022/11/27 15:39:54;;;;;;;49.60;26.87;;;;;;;5.64;100.00;101686.17;3569104;80;32128;-88
2022/11/27 15:44:57;;;;;;;44.67;24.37;;;;;;;5.58;100.00;101683.88;3553327;80;99133;-88
2022/11/27 15:49:58;;;;;;;41.90;21.60;;;;;;;5.49;100.00;101692.03;3566869;81;29592;-89
2022/11/27 15:54:59;;;;;;;45.33;23.18;;;;;;;5.49;100.00;101706.23;3560044;80;98727;-89
2022/11/27 16:00:00;;;;;;;47.57;24.60;;;;;;;5.49;100.00;101709.77;3566137;81;32916;-89
2022/11/27 16:05:00;;;;;;;47.20;25.37;;;;;;;5.44;100.00;101679.05;3563598;80;98768;-89
2022/11/27 16:10:02;;;;;;;49.10;26.70;;;;;;;5.40;100.00;101665.22;3572094;80;32240;-87
2022/11/27 16:15:04;;;;;;;54.47;28.07;;;;;;;5.38;100.00;101663.92;3553928;81;98689;-89
2022/11/27 16:20:07;;;;;;;46.17;24.10;;;;;;;5.36;100.00;101656.62;3556436;81;32788;-89
2022/11/27 16:25:08;;;;;;;44.75;23.18;;;;;;;5.33;100.00;101656.69;3555558;80;99113;-88
2022/11/27 16:30:10;;;;;;;50.37;24.13;;;;;;;5.31;100.00;101643.91;3556711;81;32257;-88
2022/11/27 16:35:12;;;;;;;49.75;25.95;;;;;;;5.27;100.00;101640.19;3554245;81;98988;-88
2022/11/27 16:40:13;;;;;;;53.30;28.05;;;;;;;5.23;100.00;101635.68;3567226;80;33398;-88
2022/11/27 16:45:16;;;;;;;56.18;30.08;;;;;;;5.19;100.00;101638.20;3558231;81;98804;-88
2022/11/27 16:50:17;;;;;;;54.95;28.55;;;;;;;5.16;100.00;101638.02;3567474;81;33347;-88
2022/11/27 16:55:17;;;;;;;57.60;30.33;;;;;;;5.14;100.00;101632.86;3560504;79;99110;-88
2022/11/27 17:00:19;;;;;;;55.13;28.63;;;;;;;5.13;100.00;101633.20;3566271;81;31594;-87
2022/11/27 17:05:20;;;;;;;53.53;26.97;;;;;;;5.09;100.00;101628.93;3563464;80;98839;-88
2022/11/27 17:10:21;;;;;;;56.33;34.03;;;;;;;5.06;100.00;101622.72;3566634;80;31920;-88
2022/11/27 17:15:21;;;;;;;63.03;34.37;;;;;;;5.00;100.00;101615.77;3563338;80;98904;-89
2022/11/27 17:20:22;;;;;;;68.77;36.50;;;;;;;4.96;100.00;101621.60;3564488;80;32021;-86
2022/11/27 17:25:24;;;;;;;68.57;33.27;;;;;;;4.92;100.00;101618.45;3558683;81;98676;-87
2022/11/27 17:30:24;;;;;;;67.13;33.07;;;;;;;4.91;100.00;101623.09;3542942;81;32297;-87
2022/11/27 17:35:25;;;;;;;65.96;36.54;;;;;;;4.88;100.00;101616.09;3543671;81;98977;-87
2022/11/27 17:40:26;;;;;;;65.23;36.13;;;;;;;4.86;100.00;101612.30;3545066;81;27989;-89
2022/11/27 17:45:27;;;;;;;64.73;34.03;;;;;;;4.86;100.00;101608.78;3532835;81;98946;-87
2022/11/27 17:50:28;;;;;;;52.27;28.23;;;;;;;4.84;100.00;101604.99;3536562;81;34917;-89
2022/11/27 17:55:29;;;;;;;62.33;35.97;;;;;;;4.84;100.00;101604.99;3534417;81;99227;-89
2022/11/27 18:00:33;;;;;;;65.00;35.83;;;;;;;4.85;100.00;101604.45;3547064;81;34975;-86
2022/11/27 18:05:38;;;;;;;76.75;38.42;;;;;;;4.85;100.00;101601.14;3536264;81;98845;-87
2022/11/27 18:10:39;;;;;;;79.87;40.93;;;;;;;4.84;100.00;101598.17;3545570;81;26560;-88
2022/11/27 18:15:41;;;;;;;59.80;32.90;;;;;;;4.83;100.00;101605.30;3539048;81;99005;-88
2022/11/27 18:20:42;;;;;;;73.17;38.37;;;;;;;4.82;100.00;101606.42;3541981;81;27947;-87
2022/11/27 18:25:43;;;;;;;85.03;45.10;;;;;;;4.84;100.00;101585.90;3546515;80;98910;-87
2022/11/27 18:30:44;;;;;;;75.17;35.63;;;;;;;4.85;100.00;101579.90;3590962;80;34834;-87
2022/11/27 18:35:45;;;;;;;82.40;40.73;;;;;;;4.83;100.00;101581.57;3587665;80;99226;-87
2022/11/27 18:40:46;;;;;;;85.43;43.23;;;;;;;4.83;100.00;101580.75;3588963;80;34880;-87
2022/11/27 18:45:46;;;;;;;89.87;44.43;;;;;;;4.85;100.00;101572.50;3584619;80;98705;-87
2022/11/27 18:50:47;;;;;;;85.37;42.87;;;;;;;4.83;100.00;101573.93;3585576;80;35476;-88
2022/11/27 18:55:48;;;;;;;87.20;44.53;;;;;;;4.84;100.00;101572.27;3589270;80;99212;-88
2022/11/27 19:00:49;;;;;;;88.97;49.75;;;;;;;4.86;100.00;101578.20;3589723;80;35466;-88
2022/11/27 19:05:49;;;;;;;94.60;51.43;;;;;;;4.83;100.00;101588.93;3589203;79;99088;-88
2022/11/27 19:10:50;;;;;;;86.47;44.90;;;;;;;4.82;100.00;101587.33;3592164;80;25839;-88
2022/11/27 19:15:51;;;;;;;96.60;53.17;;;;;;;4.81;100.00;101578.90;3594789;80;99082;-89
2022/11/27 19:20:53;;;;;;;93.10;53.70;;;;;;;4.81;100.00;101562.53;3594974;80;32471;-89
2022/11/27 19:25:54;;;;;;;112.50;58.90;;;;;;;4.83;100.00;101556.20;3611744;80;98859;-87
2022/11/27 19:30:55;;;;;;;87.97;47.80;;;;;;;4.75;100.00;101548.78;3651214;80;32458;-88
2022/11/27 19:36:07;;;;;;;77.27;40.07;;;;;;;4.72;100.00;101544.76;3642331;79;98738;-88
2022/11/27 19:41:12;;;;;;;76.70;42.43;;;;;;;4.67;100.00;101532.61;3644827;80;31044;-89
2022/11/27 19:46:17;;;;;;;69.95;39.03;;;;;;;4.63;100.00;101528.89;3636966;80;99051;-88
2022/11/27 19:51:17;;;;;;;66.70;31.55;;;;;;;4.62;100.00;101522.38;3652635;80;35370;-89
2022/11/27 19:56:19;;;;;;;65.33;35.23;;;;;;;4.59;100.00;101518.34;3635413;80;99089;-88
2022/11/27 20:01:20;;;;;;;59.73;30.07;;;;;;;4.56;100.00;101527.16;3649128;80;26445;-87
2022/11/27 20:06:24;;;;;;;61.43;30.77;;;;;;;4.52;100.00;101526.16;3633438;80;98829;-86
2022/11/27 20:11:26;;;;;;;63.37;30.03;;;;;;;4.47;100.00;101518.11;3638760;80;32047;-89
2022/11/27 20:16:26;;;;;;;56.87;30.20;;;;;;;4.39;100.00;101520.77;3662270;78;99002;-86
2022/11/27 20:21:27;;;;;;;66.13;32.07;;;;;;;4.32;100.00;101509.50;3664980;78;31646;-88
2022/11/27 20:26:29;;;;;;;78.47;36.67;;;;;;;4.23;100.00;101503.17;3549577;81;98872;-88
2022/11/27 20:31:34;;;;;;;74.87;37.57;;;;;;;4.12;100.00;101494.98;3558352;81;32495;-87
2022/11/27 20:36:37;;;;;;;100.22;45.45;;;;;;;4.07;100.00;101508.72;3578057;81;98765;-87
2022/11/27 20:41:39;;;;;;;118.45;60.92;;;;;;;3.97;100.00;101494.78;3571399;81;35398;-87
2022/11/27 20:46:40;;;;;;;160.47;60.73;;;;;;;3.88;100.00;101499.91;3535440;81;98802;-86
2022/11/27 20:51:41;;;;;;;97.47;42.53;;;;;;;3.76;100.00;101503.16;3560974;81;25865;-88
2022/11/27 20:56:44;;;;;;;92.10;41.07;;;;;;;3.64;100.00;101495.25;3554646;81;98772;-87
2022/11/27 21:01:45;;;;;;;120.15;60.88;;;;;;;3.56;100.00;101494.05;3564381;81;35835;-88
2022/11/27 21:06:47;;;;;;;127.90;63.70;;;;;;;3.46;100.00;101496.19;3549162;81;99277;-87
2022/11/27 21:11:48;;;;;;;119.03;50.67;;;;;;;3.40;100.00;101494.15;3549494;81;29698;-89
2022/11/27 21:16:49;;;;;;;110.57;48.10;;;;;;;3.34;100.00;101494.55;3546683;81;98877;-88
2022/11/27 21:21:52;;;;;;;86.33;41.63;;;;;;;3.31;100.00;101495.95;3568543;81;32648;-88
2022/11/27 21:26:53;;;;;;;84.28;40.08;;;;;;;3.28;100.00;101495.76;3568149;81;98838;-88
2022/11/27 21:31:55;;;;;;;82.80;41.10;;;;;;;3.23;100.00;101493.14;3578546;81;32539;-88
2022/11/27 21:36:56;;;;;;;85.97;40.83;;;;;;;3.14;100.00;101488.95;3558575;81;99009;-88
2022/11/27 21:41:57;;;;;;;83.77;41.70;;;;;;;3.12;100.00;101489.00;3569064;81;32524;-89
2022/11/27 21:47:02;;;;;;;86.33;40.77;;;;;;;3.14;100.00;101485.42;3556504;80;98848;-88
2022/11/27 21:52:04;;;;;;;74.95;38.75;;;;;;;3.10;100.00;101483.04;3566099;81;34794;-88
2022/11/27 21:57:05;;;;;;;69.05;34.30;;;;;;;3.11;100.00;101471.86;3562016;81;98630;-88
2022/11/27 22:02:05;;;;;;;80.93;35.33;;;;;;;3.10;100.00;101476.23;3571526;81;26485;-86
2022/11/27 22:07:06;;;;;;;69.03;36.27;;;;;;;3.10;100.00;101471.62;3608569;80;98695;-87
2022/11/27 22:12:07;;;;;;;69.37;35.07;;;;;;;3.09;100.00;101471.37;3616753;80;32442;-87
2022/11/27 22:17:08;;;;;;;73.03;36.23;;;;;;;3.08;100.00;101470.30;3597780;80;98703;-87
2022/11/27 22:22:09;;;;;;;87.62;44.27;;;;;;;3.10;100.00;101472.16;3618167;80;32413;-87
2022/11/27 22:27:09;;;;;;;121.50;58.60;;;;;;;3.09;100.00;101465.11;3598173;80;98793;-88
2022/11/27 22:32:12;;;;;;;90.80;45.83;;;;;;;3.05;100.00;101469.53;3589631;81;32481;-88
2022/11/27 22:37:12;;;;;;;82.55;39.92;;;;;;;3.01;100.00;101457.09;3569769;81;98750;-87
2022/11/27 22:42:13;;;;;;;88.10;44.30;;;;;;;2.97;100.00;101447.95;3590737;81;26467;-87
2022/11/27 22:47:14;;;;;;;93.27;48.53;;;;;;;2.92;100.00;101448.05;3581038;80;98871;-87
2022/11/27 22:52:14;;;;;;;105.57;46.90;;;;;;;2.91;100.00;101441.55;3579888;81;25820;-88
2022/11/27 22:57:15;;;;;;;131.07;51.13;;;;;;;2.86;100.00;101443.83;3561921;81;99070;-87
2022/11/27 23:02:17;;;;;;;102.27;45.63;;;;;;;2.84;100.00;101437.86;3560470;81;26447;-88
2022/11/27 23:07:17;;;;;;;113.13;48.50;;;;;;;2.79;100.00;101435.81;3584121;81;99030;-87